Time;durP1;ratioP1;P1;durP2;ratioP2;P2;SDS_P1;SDS_P2;PMS_P1;PMS_P2;Temp;Humidity;BMP_temperature;BMP_pressure;BME280_temperature;BME280_humidity;BME280_pressure;Samples;Min_cycle;Max_cycle;Signal;HPM_P1;HPM_P2
2022/11/08 00:02:06;;;;;;;;;;;;;;;9.58;75.25;100718.44;5050267;28;19923;-28
2022/11/08 00:04:31;;;;;;;;;;;;;;;9.57;75.09;100723.69;5068693;28;19916;-28
2022/11/08 00:15:08;;;;;;;;;;;;;;;9.54;74.65;100732.47;5072737;28;20045;-28
2022/11/08 00:17:33;;;;;;;;;;;;;;;9.53;74.49;100725.47;5052739;28;20015;-28
2022/11/08 00:19:58;;;;;;;;;;;;;;;9.51;74.29;100721.97;5055251;28;20007;-27
2022/11/08 00:22:24;;;;;;;;;;;;;;;9.52;74.12;100717.56;5071530;28;20073;-28
2022/11/08 00:24:50;;;;;;;;;;;;;;;9.50;74.24;100717.56;5063434;28;20258;-28
2022/11/08 00:27:20;;;;;;;;;;;;;;;9.49;73.96;100719.34;5066992;28;19921;-28
2022/11/08 00:29:45;;;;;;;;;;;;;;;9.48;73.81;100722.84;5071719;28;19975;-27
2022/11/08 00:32:11;;;;;;;;;;;;;;;9.46;73.93;100721.97;5053986;28;19971;-28
2022/11/08 00:34:37;;;;;;;;;;;;;;;9.45;73.95;100730.78;5065261;28;19917;-28
2022/11/08 00:37:02;;;;;;;;;;;;;;;9.44;73.98;100728.13;5071919;28;19931;-28
2022/11/08 00:39:28;;;;;;;;;;;;;;;9.41;73.88;100720.25;5064430;28;20288;-28
2022/11/08 00:41:53;;;;;;;;;;;;;;;9.39;74.01;100727.25;5063480;28;19952;-28
2022/11/08 00:44:18;;;;;;;;;;;;;;;9.36;74.00;100729.03;5070547;28;19916;-28
2022/11/08 00:46:43;;;;;;;;;;;;;;;9.36;74.12;100736.94;5069706;28;19916;-28
2022/11/08 00:49:08;;;;;;;;;;;;;;;9.34;74.05;100728.16;5063644;28;19921;-28
2022/11/08 00:51:34;;;;;;;;;;;;;;;9.32;73.86;100721.16;5070312;28;19920;-28
2022/11/08 00:53:59;;;;;;;;;;;;;;;9.31;73.93;100724.66;5073455;28;20310;-28
2022/11/08 00:56:24;;;;;;;;;;;;;;;9.30;74.04;100722.91;5070421;28;20011;-28
2022/11/08 00:58:49;;;;;;;;;;;;;;;9.29;73.78;100715.88;5070136;28;20011;-28
2022/11/08 01:01:16;;;;;;;;;;;;;;;9.27;73.79;100715.88;5062690;28;19970;-28
2022/11/08 01:03:41;;;;;;;;;;;;;;;9.24;73.74;100713.28;5067855;28;20308;-28
2022/11/08 01:06:07;;;;;;;;;;;;;;;9.24;73.78;100718.56;5067674;28;20007;-28
2022/11/08 01:08:32;;;;;;;;;;;;;;;9.22;73.98;100709.78;5063477;28;20119;-28
2022/11/08 01:10:59;;;;;;;;;;;;;;;9.20;73.77;100706.25;5070602;28;19970;-28
2022/11/08 01:13:25;;;;;;;;;;;;;;;9.18;73.63;100702.75;5072390;28;19958;-28
2022/11/08 01:15:50;;;;;;;;;;;;;;;9.16;73.56;100701.88;5067309;28;19916;-28
2022/11/08 01:18:15;;;;;;;;;;;;;;;9.16;73.70;100707.16;5067338;28;19916;-28
2022/11/08 01:20:41;;;;;;;;;;;;;;;9.14;73.63;100707.16;5050869;28;19920;-28
2022/11/08 01:23:06;;;;;;;;;;;;;;;9.11;73.68;100702.78;5068887;28;20377;-28
2022/11/08 01:25:36;;;;;;;;;;;;;;;9.10;73.82;100706.28;5057439;28;19924;-28
2022/11/08 01:28:01;;;;;;;;;;;;;;;9.06;73.94;100701.91;5059145;28;19921;-28
2022/11/08 01:30:26;;;;;;;;;;;;;;;9.07;73.92;100706.28;5060405;28;20275;-28
2022/11/08 01:32:51;;;;;;;;;;;;;;;9.06;74.13;100694.03;5069864;28;20400;-28
2022/11/08 01:35:16;;;;;;;;;;;;;;;9.05;74.34;100697.53;5071418;28;20392;-28
2022/11/08 01:37:42;;;;;;;;;;;;;;;9.04;74.14;100692.28;5071481;28;20377;-28
2022/11/08 01:40:07;;;;;;;;;;;;;;;9.04;74.15;100687.88;5053227;28;20293;-28
2022/11/08 01:42:32;;;;;;;;;;;;;;;9.02;74.37;100692.28;5072184;28;20347;-28
2022/11/08 01:45:02;;;;;;;;;;;;;;;9.03;74.39;100687.91;5071429;28;19920;-28
2022/11/08 01:47:27;;;;;;;;;;;;;;;9.02;74.50;100679.13;5070795;28;20293;-28
2022/11/08 01:49:56;;;;;;;;;;;;;;;9.01;74.42;100680.03;5060903;28;20437;-28
2022/11/08 01:52:39;;;;;;;;;;;;;;;9.01;74.54;100676.50;5043094;28;19917;-28
2022/11/08 01:55:06;;;;;;;;;;;;;;;9.01;74.98;100682.66;5053400;28;20050;-27
2022/11/08 01:57:33;;;;;;;;;;;;;;;9.00;75.05;100674.75;5044011;28;19924;-28
2022/11/08 02:00:00;;;;;;;;;;;;;;;8.99;75.07;100679.13;5057383;28;19944;-27
2022/11/08 02:02:25;;;;;;;;;;;;;;;8.99;75.04;100676.50;5049278;28;19920;-28
2022/11/08 02:04:50;;;;;;;;;;;;;;;9.00;75.46;100674.75;5049480;28;19923;-28
2022/11/08 02:07:16;;;;;;;;;;;;;;;9.00;75.29;100670.34;5066767;28;20285;-28
2022/11/08 02:09:41;;;;;;;;;;;;;;;8.99;75.49;100673.88;5070104;28;19921;-28
2022/11/08 02:12:06;;;;;;;;;;;;;;;8.99;75.50;100665.97;5071522;28;19923;-28
2022/11/08 02:14:32;;;;;;;;;;;;;;;8.98;75.60;100659.81;5048664;28;19947;-28
2022/11/08 02:16:57;;;;;;;;;;;;;;;8.98;75.67;100664.25;5045007;28;19923;-28
2022/11/08 02:19:31;;;;;;;;;;;;;;;8.98;75.59;100672.97;5067007;28;19997;-28
2022/11/08 02:21:57;;;;;;;;;;;;;;;9.00;75.53;100674.75;5052156;28;20054;-28
2022/11/08 02:24:22;;;;;;;;;;;;;;;8.99;75.56;100671.25;5053352;28;20063;-28
2022/11/08 02:26:47;;;;;;;;;;;;;;;9.00;75.67;100662.47;5049299;28;19920;-28
2022/11/08 02:29:22;;;;;;;;;;;;;;;8.99;75.51;100665.97;5048009;28;19995;-28
2022/11/08 02:31:47;;;;;;;;;;;;;;;8.97;75.55;100659.88;5070193;28;19917;-28
2022/11/08 02:34:12;;;;;;;;;;;;;;;8.98;75.44;100664.25;5059619;28;19927;-28
2022/11/08 02:36:37;;;;;;;;;;;;;;;8.98;75.40;100664.25;5071173;28;19948;-28
2022/11/08 02:39:02;;;;;;;;;;;;;;;8.97;75.46;100662.50;5070534;28;20422;-28
2022/11/08 02:41:28;;;;;;;;;;;;;;;8.97;75.34;100659.88;5053660;28;19970;-28
2022/11/08 02:43:53;;;;;;;;;;;;;;;8.94;75.25;100652.81;5052327;28;19921;-28
2022/11/08 02:46:18;;;;;;;;;;;;;;;8.95;75.04;100657.22;5070999;28;19916;-28
2022/11/08 02:48:43;;;;;;;;;;;;;;;8.94;74.95;100658.09;5062836;28;19921;-28
2022/11/08 02:51:08;;;;;;;;;;;;;;;8.94;74.88;100657.22;5062465;28;19947;-28
2022/11/08 02:53:34;;;;;;;;;;;;;;;8.92;74.76;100662.50;5065215;28;20277;-28
2022/11/08 02:55:59;;;;;;;;;;;;;;;8.92;74.77;100656.34;5064733;28;20427;-28
2022/11/08 02:58:26;;;;;;;;;;;;;;;8.91;74.51;100652.88;5067587;28;20373;-28
2022/11/08 03:00:51;;;;;;;;;;;;;;;8.89;74.44;100636.19;5066606;28;19923;-28
2022/11/08 03:03:17;;;;;;;;;;;;;;;8.89;74.59;100637.94;5056036;28;19921;-28
2022/11/08 03:05:42;;;;;;;;;;;;;;;8.88;74.30;100646.72;5069624;28;19921;-28
2022/11/08 03:08:07;;;;;;;;;;;;;;;8.87;74.20;100648.47;5065927;28;20010;-28
2022/11/08 03:10:32;;;;;;;;;;;;;;;8.84;74.24;100645.88;5052452;28;19927;-28
2022/11/08 03:12:58;;;;;;;;;;;;;;;8.83;74.26;100655.50;5074479;28;20392;-28
2022/11/08 03:15:23;;;;;;;;;;;;;;;8.82;74.34;100648.50;5048039;28;20374;-28
2022/11/08 03:17:49;;;;;;;;;;;;;;;8.80;74.40;100647.59;5074648;28;19917;-28
2022/11/08 03:20:14;;;;;;;;;;;;;;;8.78;74.33;100652.00;5053415;28;19916;-28
2022/11/08 03:22:39;;;;;;;;;;;;;;;8.77;74.26;100650.25;5071218;28;19916;-28
2022/11/08 03:25:05;;;;;;;;;;;;;;;8.75;74.36;100646.75;5064923;28;19931;-28
2022/11/08 03:27:30;;;;;;;;;;;;;;;8.75;74.39;100653.75;5068998;28;19939;-28
2022/11/08 03:29:55;;;;;;;;;;;;;;;8.73;74.22;100656.38;5072674;28;19927;-28
2022/11/08 03:32:21;;;;;;;;;;;;;;;8.72;74.28;100657.28;5070566;28;19932;-28
2022/11/08 03:34:46;;;;;;;;;;;;;;;8.70;74.36;100661.63;5051253;28;19917;-28
2022/11/08 03:37:11;;;;;;;;;;;;;;;8.68;74.07;100658.16;5071766;28;19920;-28
2022/11/08 03:39:37;;;;;;;;;;;;;;;8.67;74.13;100659.03;5072437;28;19962;-28
2022/11/08 03:42:03;;;;;;;;;;;;;;;8.65;74.27;100666.94;5071904;28;19916;-27
2022/11/08 03:44:29;;;;;;;;;;;;;;;8.64;74.27;100664.31;5066957;28;19999;-28
2022/11/08 03:46:54;;;;;;;;;;;;;;;8.63;74.17;100665.19;5072903;28;20363;-28
2022/11/08 03:49:19;;;;;;;;;;;;;;;8.63;73.99;100662.56;5072007;28;19963;-28
2022/11/08 03:51:44;;;;;;;;;;;;;;;8.60;74.24;100653.78;5066969;28;19916;-28
2022/11/08 03:54:10;;;;;;;;;;;;;;;8.60;73.99;100655.53;5054828;28;19916;-28
2022/11/08 03:56:35;;;;;;;;;;;;;;;8.57;73.97;100664.28;5069642;28;19917;-28
2022/11/08 03:59:00;;;;;;;;;;;;;;;8.57;73.94;100659.03;5070230;28;19912;-28
2022/11/08 04:01:25;;;;;;;;;;;;;;;8.55;74.04;100663.44;5051420;28;20022;-28
2022/11/08 04:03:50;;;;;;;;;;;;;;;8.55;73.94;100657.28;5047872;28;19917;-28
2022/11/08 04:06:16;;;;;;;;;;;;;;;8.53;74.10;100661.63;5071559;28;19916;-28
2022/11/08 04:08:41;;;;;;;;;;;;;;;8.51;74.20;100669.53;5067976;28;19916;-28
2022/11/08 04:16:34;;;;;;;;;;;;;;;8.46;74.50;100666.03;5069009;28;20415;-28
2022/11/08 04:21:47;;;;;;;;;;;;;;;8.43;74.66;100666.91;5058218;28;19934;-28
2022/11/08 04:24:12;;;;;;;;;;;;;;;8.42;74.73;100666.91;5073961;28;19912;-28
2022/11/08 04:26:38;;;;;;;;;;;;;;;8.42;74.65;100677.41;5073928;28;19936;-28
2022/11/08 04:29:04;;;;;;;;;;;;;;;8.41;74.90;100673.91;5073579;28;19960;-28
2022/11/08 04:31:29;;;;;;;;;;;;;;;8.40;74.85;100673.94;5054015;28;19920;-28
2022/11/08 04:33:54;;;;;;;;;;;;;;;8.40;75.00;100666.03;5065458;28;19970;-28
2022/11/08 04:36:19;;;;;;;;;;;;;;;8.39;74.81;100670.41;5071131;28;19975;-28
2022/11/08 04:38:48;;;;;;;;;;;;;;;8.41;74.79;100678.31;5065868;28;19920;-28
2022/11/08 04:41:14;;;;;;;;;;;;;;;8.38;74.90;100668.66;5069502;28;20282;-28
2022/11/08 04:43:39;;;;;;;;;;;;;;;8.38;74.82;100658.16;5052017;28;20388;-28
2022/11/08 04:46:06;;;;;;;;;;;;;;;8.39;74.77;100664.28;5071005;28;19962;-28
2022/11/08 04:48:31;;;;;;;;;;;;;;;8.37;74.82;100655.53;5066155;28;19920;-28
2022/11/08 04:51:00;;;;;;;;;;;;;;;8.38;74.82;100662.53;5071638;28;20019;-28
2022/11/08 04:53:25;;;;;;;;;;;;;;;8.35;74.50;100660.78;5069240;28;19916;-28
2022/11/08 04:55:51;;;;;;;;;;;;;;;8.34;74.60;100657.25;5067843;28;19916;-28
2022/11/08 04:58:16;;;;;;;;;;;;;;;8.34;74.60;100662.53;5071895;28;19927;-28
2022/11/08 05:00:41;;;;;;;;;;;;;;;8.33;74.40;100665.16;5069761;28;20396;-28
2022/11/08 05:03:06;;;;;;;;;;;;;;;8.31;74.42;100667.78;5073110;28;20399;-28
2022/11/08 05:05:31;;;;;;;;;;;;;;;8.31;74.18;100662.50;5072504;28;19917;-28
2022/11/08 05:07:57;;;;;;;;;;;;;;;8.30;74.20;100663.41;5072782;28;19916;-28
2022/11/08 05:10:22;;;;;;;;;;;;;;;8.27;74.28;100660.75;5070745;28;19921;-28
2022/11/08 05:12:47;;;;;;;;;;;;;;;8.26;74.28;100655.50;5071786;28;19917;-28
2022/11/08 05:15:12;;;;;;;;;;;;;;;8.24;74.17;100650.28;5071978;28;19921;-28
2022/11/08 05:17:37;;;;;;;;;;;;;;;8.23;74.14;100648.50;5072127;28;19916;-28
2022/11/08 05:25:36;;;;;;;;;;;;;;;8.19;73.85;100646.75;5072148;28;19928;-28
2022/11/08 05:28:01;;;;;;;;;;;;;;;8.18;73.94;100648.53;5054972;28;19923;-28
2022/11/08 05:30:27;;;;;;;;;;;;;;;8.17;73.89;100643.28;5072654;28;20270;-28
2022/11/08 05:32:52;;;;;;;;;;;;;;;8.15;73.91;100639.75;5071969;28;19923;-28
2022/11/08 05:35:20;;;;;;;;;;;;;;;8.14;73.89;100643.25;5068935;28;19927;-28
2022/11/08 05:37:45;;;;;;;;;;;;;;;8.12;73.67;100645.00;5065368;28;19913;-28
2022/11/08 05:40:11;;;;;;;;;;;;;;;8.11;73.68;100643.25;5071487;28;19923;-28
2022/11/08 05:42:36;;;;;;;;;;;;;;;8.07;73.65;100643.25;5052998;28;19917;-28
2022/11/08 05:45:01;;;;;;;;;;;;;;;8.06;73.55;100635.34;5069298;28;19917;-28
2022/11/08 05:47:26;;;;;;;;;;;;;;;8.04;73.71;100637.97;5067900;28;19935;-28
2022/11/08 05:49:51;;;;;;;;;;;;;;;8.01;73.46;100638.00;5066514;28;19917;-28
2022/11/08 05:52:17;;;;;;;;;;;;;;;7.99;73.56;100639.75;5071568;28;19916;-28
2022/11/08 05:54:42;;;;;;;;;;;;;;;7.96;73.48;100644.97;5071973;28;20113;-30
2022/11/08 05:57:07;;;;;;;;;;;;;;;7.93;73.43;100637.97;5072079;28;19950;-30
2022/11/08 05:59:32;;;;;;;;;;;;;;;7.92;73.55;100637.97;5071092;28;20438;-30
2022/11/08 06:01:58;;;;;;;;;;;;;;;7.90;73.65;100637.13;5070973;28;20069;-31
2022/11/08 06:04:23;;;;;;;;;;;;;;;7.88;73.56;100636.22;5071781;28;19927;-28
2022/11/08 06:06:48;;;;;;;;;;;;;;;7.86;73.60;100638.84;5071122;28;19916;-28
2022/11/08 06:09:14;;;;;;;;;;;;;;;7.85;73.83;100641.47;5070073;28;19974;-29
2022/11/08 06:11:39;;;;;;;;;;;;;;;7.83;73.57;100639.72;5052164;28;20240;-29
2022/11/08 06:14:05;;;;;;;;;;;;;;;7.79;73.54;100640.59;5069601;28;19917;-29
2022/11/08 06:16:30;;;;;;;;;;;;;;;7.78;73.73;100640.59;5070290;28;20007;-29
2022/11/08 06:18:55;;;;;;;;;;;;;;;7.77;73.93;100639.69;5072124;28;20042;-29
2022/11/08 06:21:21;;;;;;;;;;;;;;;7.73;73.80;100634.47;5069757;28;19923;-29
2022/11/08 06:23:46;;;;;;;;;;;;;;;7.72;73.81;100636.19;5065009;28;20357;-29
2022/11/08 06:26:12;;;;;;;;;;;;;;;7.70;73.66;100640.56;5037142;28;19914;-29
2022/11/08 06:28:37;;;;;;;;;;;;;;;7.69;73.59;100646.69;5052519;28;20065;-29
2022/11/08 06:31:02;;;;;;;;;;;;;;;7.65;73.69;100644.94;5070943;28;19924;-29
2022/11/08 06:33:28;;;;;;;;;;;;;;;7.63;73.69;100644.91;5053883;28;20387;-29
2022/11/08 06:35:53;;;;;;;;;;;;;;;7.61;73.81;100651.03;5069789;28;19920;-29
2022/11/08 06:38:18;;;;;;;;;;;;;;;7.60;73.70;100646.69;5069844;28;19916;-29
2022/11/08 06:40:44;;;;;;;;;;;;;;;7.56;73.66;100648.41;5071212;28;20172;-29
2022/11/08 06:43:09;;;;;;;;;;;;;;;7.54;73.58;100648.38;5071895;28;19919;-29
2022/11/08 06:45:35;;;;;;;;;;;;;;;7.54;73.62;100647.53;5054088;28;19912;-29
2022/11/08 06:48:01;;;;;;;;;;;;;;;7.51;73.73;100650.13;5071887;28;20312;-29
2022/11/08 06:50:27;;;;;;;;;;;;;;;7.49;73.62;100644.88;5068209;28;19924;-29
2022/11/08 06:52:55;;;;;;;;;;;;;;;7.48;73.80;100637.00;5047276;28;20015;-29
2022/11/08 06:55:21;;;;;;;;;;;;;;;7.47;73.75;100651.88;5071099;28;19912;-29
2022/11/08 06:57:46;;;;;;;;;;;;;;;7.46;73.82;100654.50;5071696;28;19965;-29
2022/11/08 07:00:11;;;;;;;;;;;;;;;7.43;73.93;100660.59;5071510;28;20369;-29
2022/11/08 07:02:37;;;;;;;;;;;;;;;7.42;73.74;100653.59;5053650;28;19913;-29
2022/11/08 07:05:02;;;;;;;;;;;;;;;7.42;73.98;100661.47;5051930;28;20015;-29
2022/11/08 07:07:27;;;;;;;;;;;;;;;7.40;73.63;100656.22;5063082;28;19916;-29
2022/11/08 07:09:53;;;;;;;;;;;;;;;7.39;73.82;100649.22;5071213;28;19916;-29
2022/11/08 07:12:18;;;;;;;;;;;;;;;7.39;73.98;100649.22;5070046;28;19925;-29
2022/11/08 07:14:43;;;;;;;;;;;;;;;7.40;74.02;100650.97;5071221;28;20344;-29
2022/11/08 07:17:08;;;;;;;;;;;;;;;7.39;73.92;100650.97;5071331;28;19916;-29
2022/11/08 07:19:33;;;;;;;;;;;;;;;7.38;74.19;100646.59;5071071;28;19923;-29
2022/11/08 07:21:59;;;;;;;;;;;;;;;7.39;74.03;100645.72;5071039;28;20366;-29
2022/11/08 07:24:24;;;;;;;;;;;;;;;7.39;74.37;100645.72;5068428;28;19962;-29
2022/11/08 07:26:49;;;;;;;;;;;;;;;7.38;74.58;100643.97;5041641;28;19928;-29
2022/11/08 07:29:15;;;;;;;;;;;;;;;7.40;74.38;100642.25;5053192;28;19920;-29
2022/11/08 07:31:40;;;;;;;;;;;;;;;7.40;74.66;100647.50;5070376;28;19924;-29
2022/11/08 07:34:05;;;;;;;;;;;;;;;7.40;74.79;100637.00;5053178;28;19917;-29
2022/11/08 07:36:30;;;;;;;;;;;;;;;7.42;74.95;100643.09;5071158;28;20003;-29
2022/11/08 07:38:56;;;;;;;;;;;;;;;7.41;74.76;100639.59;5069978;28;19923;-29
2022/11/08 07:41:21;;;;;;;;;;;;;;;7.44;74.90;100637.00;5071268;28;20201;-29
2022/11/08 07:43:48;;;;;;;;;;;;;;;7.44;75.19;100642.25;5073426;28;20365;-29
2022/11/08 07:46:13;;;;;;;;;;;;;;;7.46;75.10;100638.75;5056684;28;20567;-29
2022/11/08 07:48:38;;;;;;;;;;;;;;;7.47;75.06;100646.63;5074774;28;19959;-29
2022/11/08 07:51:03;;;;;;;;;;;;;;;7.49;75.36;100642.25;5074239;28;19912;-29
2022/11/08 07:53:29;;;;;;;;;;;;;;;7.51;75.06;100642.28;5047912;28;19913;-29
2022/11/08 07:55:54;;;;;;;;;;;;;;;7.53;75.33;100644.03;5056170;28;19928;-29
2022/11/08 07:58:19;;;;;;;;;;;;;;;7.56;75.49;100635.28;5074557;28;19916;-29
2022/11/08 08:00:45;;;;;;;;;;;;;;;7.58;75.55;100639.66;5074588;28;19912;-29
2022/11/08 08:03:11;;;;;;;;;;;;;;;7.64;75.35;100638.78;5074482;28;19913;-29
2022/11/08 08:05:37;;;;;;;;;;;;;;;7.68;75.35;100630.03;5056196;28;19923;-29
2022/11/08 08:08:03;;;;;;;;;;;;;;;7.72;75.30;100636.19;5072891;28;20010;-29
2022/11/08 08:10:28;;;;;;;;;;;;;;;7.78;75.61;100641.47;5074217;28;20019;-29
2022/11/08 08:12:54;;;;;;;;;;;;;;;7.83;75.65;100639.72;5074129;28;19935;-29
2022/11/08 08:15:19;;;;;;;;;;;;;;;7.90;75.75;100634.50;5074028;28;19970;-29
2022/11/08 08:17:45;;;;;;;;;;;;;;;7.94;75.81;100621.34;5055949;28;20003;-29
2022/11/08 08:20:10;;;;;;;;;;;;;;;8.01;75.81;100624.88;5072813;28;19924;-29
2022/11/08 08:22:35;;;;;;;;;;;;;;;8.06;75.75;100625.75;5065558;28;19974;-29
2022/11/08 08:25:01;;;;;;;;;;;;;;;8.13;75.92;100618.72;5055476;28;19970;-29
2022/11/08 08:27:26;;;;;;;;;;;;;;;8.19;75.96;100609.97;5073844;28;20007;-29
2022/11/08 08:29:51;;;;;;;;;;;;;;;8.26;75.92;100609.09;5074104;28;19958;-29
2022/11/08 08:32:16;;;;;;;;;;;;;;;8.31;75.93;100604.69;5074145;28;20317;-29
2022/11/08 08:34:42;;;;;;;;;;;;;;;8.37;75.76;100610.84;5070894;28;20328;-29
2022/11/08 08:37:07;;;;;;;;;;;;;;;8.44;75.86;100607.34;5049472;28;20292;-29
2022/11/08 08:39:32;;;;;;;;;;;;;;;8.50;75.82;100598.56;5065353;28;20173;-29
2022/11/08 08:41:57;;;;;;;;;;;;;;;8.55;75.64;100605.59;5073440;28;20431;-29
2022/11/08 08:44:23;;;;;;;;;;;;;;;8.60;75.80;100595.94;5073485;28;19920;-29
2022/11/08 08:46:48;;;;;;;;;;;;;;;8.66;75.71;100594.16;5073500;28;19948;-29
2022/11/08 08:49:13;;;;;;;;;;;;;;;8.71;75.71;100593.28;5071675;28;19928;-29
2022/11/08 08:51:38;;;;;;;;;;;;;;;8.77;75.96;100597.66;5073267;28;19913;-29
2022/11/08 08:54:04;;;;;;;;;;;;;;;8.83;76.12;100597.63;5055020;28;20073;-29
2022/11/08 08:56:29;;;;;;;;;;;;;;;8.89;75.96;100598.47;5055213;28;19917;-29
2022/11/08 08:58:54;;;;;;;;;;;;;;;8.97;76.67;100602.84;5055444;28;19920;-29
2022/11/08 09:01:19;;;;;;;;;;;;;;;9.02;76.08;100591.44;5073092;28;19913;-29
2022/11/08 09:03:45;;;;;;;;;;;;;;;9.08;76.90;100596.69;5072241;28;19963;-29
2022/11/08 09:06:10;;;;;;;;;;;;;;;9.12;76.55;100595.78;5054735;28;19916;-29
2022/11/08 09:08:35;;;;;;;;;;;;;;;9.20;76.92;100601.00;5073479;28;20003;-29
2022/11/08 09:11:01;;;;;;;;;;;;;;;9.24;76.31;100598.34;5072907;28;19920;-29
2022/11/08 09:13:26;;;;;;;;;;;;;;;9.30;76.64;100592.19;5073241;28;19958;-29
2022/11/08 09:15:52;;;;;;;;;;;;;;;9.35;76.74;100581.63;5055003;28;19970;-29
2022/11/08 09:18:18;;;;;;;;;;;;;;;9.41;77.10;100592.13;5070195;28;20393;-29
2022/11/08 09:20:43;;;;;;;;;;;;;;;9.48;77.19;100595.59;5065326;28;20444;-29
2022/11/08 09:23:09;;;;;;;;;;;;;;;9.54;77.68;100590.28;5072507;28;20016;-29
2022/11/08 09:25:34;;;;;;;;;;;;;;;9.61;77.69;100585.88;5072766;28;20242;-29
2022/11/08 09:27:59;;;;;;;;;;;;;;;9.67;77.86;100587.59;5072776;28;20407;-29
2022/11/08 09:30:25;;;;;;;;;;;;;;;9.71;76.99;100578.78;5051705;28;20320;-29
2022/11/08 09:32:52;;;;;;;;;;;;;;;9.77;77.82;100576.09;5066184;28;19992;-29
2022/11/08 09:35:17;;;;;;;;;;;;;;;9.84;77.66;100582.22;5072760;28;19913;-29
2022/11/08 09:37:42;;;;;;;;;;;;;;;9.88;77.83;100579.50;5071949;28;20141;-29
2022/11/08 09:40:09;;;;;;;;;;;;;;;9.96;77.99;100570.69;5054534;28;20620;-29
2022/11/08 09:42:37;;;;;;;;;;;;;;;10.00;77.22;100568.00;5054480;28;19939;-29
2022/11/08 09:45:20;;;;;;;;;;;;;;;10.06;77.02;100569.72;5071649;28;19912;-29
2022/11/08 09:47:46;;;;;;;;;;;;;;;10.13;76.97;100567.91;5065328;28;19973;-29
2022/11/08 09:50:29;;;;;;;;;;;;;;;10.21;76.93;100570.47;5072037;28;19924;-29
2022/11/08 09:53:17;;;;;;;;;;;;;;;10.28;77.46;100569.53;5072113;28;19917;-29
2022/11/08 09:55:42;;;;;;;;;;;;;;;10.34;77.84;100561.56;5072517;28;19924;-29
2022/11/08 09:58:20;;;;;;;;;;;;;;;10.40;77.52;100550.06;5071640;28;19935;-29
2022/11/08 10:00:49;;;;;;;;;;;;;;;10.45;77.68;100550.94;5064616;28;19999;-29
2022/11/08 10:03:15;;;;;;;;;;;;;;;10.51;77.51;100548.22;5054962;28;20019;-29
2022/11/08 10:05:41;;;;;;;;;;;;;;;10.56;77.66;100549.94;5071800;28;20417;-29
2022/11/08 10:08:18;;;;;;;;;;;;;;;10.60;77.64;100528.78;5071832;28;19923;-29
2022/11/08 10:11:03;;;;;;;;;;;;;;;10.64;77.36;100533.13;5034241;28;19916;-29
2022/11/08 10:13:31;;;;;;;;;;;;;;;10.70;77.42;100547.16;5049269;28;20377;-29
2022/11/08 10:16:02;;;;;;;;;;;;;;;10.71;76.59;100544.47;5072332;28;20292;-29
2022/11/08 10:18:46;;;;;;;;;;;;;;;10.74;76.66;100533.91;5054161;28;19939;-30
2022/11/08 10:21:23;;;;;;;;;;;;;;;10.78;76.36;100530.31;5071514;28;19916;-29
2022/11/08 10:23:52;;;;;;;;;;;;;;;10.83;76.50;100532.91;5053916;28;19916;-29
2022/11/08 10:26:18;;;;;;;;;;;;;;;10.90;77.09;100528.44;5053280;28;19924;-29
2022/11/08 10:28:51;;;;;;;;;;;;;;;10.96;77.66;100522.19;5053847;28;19920;-29
2022/11/08 10:31:18;;;;;;;;;;;;;;;11.03;78.42;100524.75;5053835;28;19924;-29
2022/11/08 10:33:44;;;;;;;;;;;;;;;11.09;78.75;100518.53;5071823;28;19959;-29
2022/11/08 10:36:20;;;;;;;;;;;;;;;11.15;79.06;100522.84;5071962;28;19912;-29
2022/11/08 10:38:45;;;;;;;;;;;;;;;11.23;78.77;100526.25;5053926;28;19922;-30
2022/11/08 10:41:29;;;;;;;;;;;;;;;11.31;79.33;100522.63;5062315;28;19917;-29
2022/11/08 10:43:56;;;;;;;;;;;;;;;11.38;79.91;100509.31;5061962;28;19927;-29
2022/11/08 10:46:39;;;;;;;;;;;;;;;11.46;79.49;100509.19;5034730;28;20357;-29
2022/11/08 10:49:07;;;;;;;;;;;;;;;11.54;80.24;100511.72;5071530;28;19928;-29
2022/11/08 10:51:32;;;;;;;;;;;;;;;11.61;80.33;100502.78;5036603;28;19916;-29
2022/11/08 10:53:58;;;;;;;;;;;;;;;11.70;80.15;100508.84;5052626;28;19923;-29
2022/11/08 10:56:23;;;;;;;;;;;;;;;11.78;80.02;100488.44;5063325;28;19912;-29
2022/11/08 10:58:49;;;;;;;;;;;;;;;11.86;79.76;100489.16;5071387;28;19962;-29
2022/11/08 11:01:18;;;;;;;;;;;;;;;11.92;79.22;100481.16;5071454;28;19912;-29
2022/11/08 11:03:43;;;;;;;;;;;;;;;12.00;79.07;100485.41;5071821;28;19927;-29
2022/11/08 11:06:31;;;;;;;;;;;;;;;12.06;78.85;100474.75;5053466;28;20281;-29
2022/11/08 11:08:57;;;;;;;;;;;;;;;12.14;78.74;100472.81;5070747;28;19920;-29
2022/11/08 11:11:22;;;;;;;;;;;;;;;12.22;78.41;100479.75;5071124;28;19912;-29
2022/11/08 11:14:03;;;;;;;;;;;;;;;12.28;78.50;100466.41;5071316;28;19923;-29
2022/11/08 11:16:28;;;;;;;;;;;;;;;12.36;77.93;100460.97;5071337;28;19924;-29
2022/11/08 11:18:54;;;;;;;;;;;;;;;12.42;77.82;100467.03;5075451;28;19919;-30
2022/11/08 11:21:22;;;;;;;;;;;;;;;12.49;77.75;100472.16;5056442;28;19924;-29
2022/11/08 11:23:48;;;;;;;;;;;;;;;12.56;77.62;100476.44;5057192;28;20398;-29
2022/11/08 11:26:17;;;;;;;;;;;;;;;12.63;77.38;100475.41;5074986;28;19920;-29
2022/11/08 11:29:00;;;;;;;;;;;;;;;12.68;77.16;100477.97;5075040;28;20381;-29
2022/11/08 11:31:25;;;;;;;;;;;;;;;12.76;76.90;100480.44;5057204;28;19913;-29
2022/11/08 11:33:50;;;;;;;;;;;;;;;12.81;76.68;100474.13;5075129;28;20010;-29
2022/11/08 11:36:17;;;;;;;;;;;;;;;12.88;76.50;100464.31;5074414;28;19924;-29
2022/11/08 11:39:21;;;;;;;;;;;;;;;12.94;76.45;100469.44;5057090;28;19916;-29
2022/11/08 11:41:54;;;;;;;;;;;;;;;13.01;75.98;100464.88;4973543;28;20426;-30
2022/11/08 11:44:21;;;;;;;;;;;;;;;13.06;75.60;100462.13;4957328;28;19937;-29
2022/11/08 11:46:48;;;;;;;;;;;;;;;13.12;75.31;100462.00;5018527;28;19912;-30
2022/11/08 11:49:16;;;;;;;;;;;;;;;13.18;75.37;100461.84;5047686;28;19925;-29
2022/11/08 11:51:41;;;;;;;;;;;;;;;13.24;75.33;100457.31;5074482;28;19998;-29
2022/11/08 11:54:06;;;;;;;;;;;;;;;13.29;75.21;100447.47;5074333;28;20046;-29
2022/11/08 11:56:41;;;;;;;;;;;;;;;13.33;74.79;100455.34;5075006;28;19923;-29
2022/11/08 11:59:13;;;;;;;;;;;;;;;13.39;74.77;100448.13;5074740;28;20017;-29
2022/11/08 12:01:57;;;;;;;;;;;;;;;13.44;74.68;100446.25;5055443;28;19913;-29
2022/11/08 12:04:26;;;;;;;;;;;;;;;13.49;74.33;100436.44;5072512;28;19916;-29
2022/11/08 12:07:06;;;;;;;;;;;;;;;13.54;73.88;100437.19;5074502;28;19965;-29
2022/11/08 12:09:41;;;;;;;;;;;;;;;13.58;73.27;100433.53;5074490;28;19916;-29
2022/11/08 12:12:19;;;;;;;;;;;;;;;13.64;72.70;100436.97;5074118;28;19916;-29
2022/11/08 12:14:48;;;;;;;;;;;;;;;13.68;72.78;100426.25;5055835;28;19962;-29
2022/11/08 12:17:32;;;;;;;;;;;;;;;13.71;72.72;100427.94;5047279;28;19917;-29
2022/11/08 12:19:57;;;;;;;;;;;;;;;13.76;72.41;100425.16;5068766;28;19952;-29
2022/11/08 12:22:41;;;;;;;;;;;;;;;13.82;72.16;100430.31;5073882;28;19952;-29
2022/11/08 12:25:10;;;;;;;;;;;;;;;13.84;72.42;100423.19;5054255;28;19917;-29
2022/11/08 12:27:57;;;;;;;;;;;;;;;13.89;72.21;100405.38;5055048;28;19917;-29
2022/11/08 12:30:31;;;;;;;;;;;;;;;13.93;72.28;100406.16;5055810;28;20327;-29
2022/11/08 12:33:15;;;;;;;;;;;;;;;13.97;72.18;100406.03;5073854;28;19912;-29
2022/11/08 12:35:40;;;;;;;;;;;;;;;14.00;71.88;100399.75;5073962;28;19921;-29
2022/11/08 12:38:24;;;;;;;;;;;;;;;14.03;71.94;100412.94;5055429;28;19912;-29
2022/11/08 12:40:54;;;;;;;;;;;;;;;14.05;71.89;100416.44;5073823;28;20062;-29
2022/11/08 12:43:22;;;;;;;;;;;;;;;14.08;71.81;100408.38;5038326;28;19917;-29
2022/11/08 12:45:53;;;;;;;;;;;;;;;14.13;71.73;100408.25;5073805;28;19982;-29
2022/11/08 12:48:38;;;;;;;;;;;;;;;14.18;71.98;100405.47;5073808;28;20049;-29
2022/11/08 12:51:03;;;;;;;;;;;;;;;14.21;71.75;100408.91;5073518;28;19912;-29
2022/11/08 12:53:40;;;;;;;;;;;;;;;14.24;71.33;100411.47;5073634;28;19920;-29
2022/11/08 12:56:10;;;;;;;;;;;;;;;14.29;71.43;100410.47;5054069;28;20026;-29
2022/11/08 12:58:38;;;;;;;;;;;;;;;14.33;71.14;100404.16;5055125;28;20268;-29
2022/11/08 13:01:08;;;;;;;;;;;;;;;14.38;71.00;100399.59;5063182;28;20377;-29
2022/11/08 13:03:45;;;;;;;;;;;;;;;14.41;70.99;100402.16;5061551;28;19924;-29
2022/11/08 13:06:13;;;;;;;;;;;;;;;14.44;71.10;100402.06;5073303;28;20007;-29